sensor_id;sensor_type;location;lat;lon;timestamp;P1;durP1;ratioP1;P2;durP2;ratioP2
60726;SDS011;46577;49.004;12.120;2023-08-07T00:00:03;2.10;;;1.53;;
60726;SDS011;46577;49.004;12.120;2023-08-07T00:02:29;2.40;;;1.20;;
60726;SDS011;46577;49.004;12.120;2023-08-07T00:04:55;1.07;;;0.97;;
60726;SDS011;46577;49.004;12.120;2023-08-07T00:07:22;3.63;;;1.60;;
60726;SDS011;46577;49.004;12.120;2023-08-07T00:09:50;2.10;;;1.10;;
60726;SDS011;46577;49.004;12.120;2023-08-07T00:12:16;1.80;;;1.37;;
60726;SDS011;46577;49.004;12.120;2023-08-07T00:14:42;3.63;;;1.30;;
60726;SDS011;46577;49.004;12.120;2023-08-07T00:17:08;1.27;;;1.07;;
60726;SDS011;46577;49.004;12.120;2023-08-07T00:19:34;1.60;;;1.30;;
60726;SDS011;46577;49.004;12.120;2023-08-07T00:22:00;2.30;;;1.43;;
60726;SDS011;46577;49.004;12.120;2023-08-07T00:24:26;1.27;;;0.93;;
60726;SDS011;46577;49.004;12.120;2023-08-07T00:26:52;0.80;;;0.80;;
60726;SDS011;46577;49.004;12.120;2023-08-07T00:29:18;1.10;;;0.90;;
60726;SDS011;46577;49.004;12.120;2023-08-07T00:31:44;3.57;;;0.90;;
60726;SDS011;46577;49.004;12.120;2023-08-07T00:34:10;0.80;;;0.80;;
60726;SDS011;46577;49.004;12.120;2023-08-07T00:36:36;1.50;;;0.80;;
60726;SDS011;46577;49.004;12.120;2023-08-07T00:39:02;6.30;;;1.00;;
60726;SDS011;46577;49.004;12.120;2023-08-07T00:41:28;1.10;;;0.70;;
60726;SDS011;46577;49.004;12.120;2023-08-07T00:43:54;1.83;;;0.63;;
60726;SDS011;46577;49.004;12.120;2023-08-07T00:46:20;0.93;;;0.93;;
60726;SDS011;46577;49.004;12.120;2023-08-07T00:48:47;0.87;;;0.50;;
60726;SDS011;46577;49.004;12.120;2023-08-07T00:51:13;1.17;;;1.00;;
60726;SDS011;46577;49.004;12.120;2023-08-07T00:53:40;1.43;;;0.90;;
60726;SDS011;46577;49.004;12.120;2023-08-07T00:58:34;1.23;;;0.70;;
60726;SDS011;46577;49.004;12.120;2023-08-07T01:01:00;1.73;;;0.77;;
60726;SDS011;46577;49.004;12.120;2023-08-07T01:03:26;0.60;;;0.60;;
60726;SDS011;46577;49.004;12.120;2023-08-07T01:05:52;0.57;;;0.57;;
60726;SDS011;46577;49.004;12.120;2023-08-07T01:08:19;0.70;;;0.60;;
60726;SDS011;46577;49.004;12.120;2023-08-07T01:10:52;0.60;;;0.60;;
60726;SDS011;46577;49.004;12.120;2023-08-07T01:13:24;0.70;;;0.70;;
60726;SDS011;46577;49.004;12.120;2023-08-07T01:15:51;2.03;;;0.70;;
60726;SDS011;46577;49.004;12.120;2023-08-07T01:18:18;0.70;;;0.63;;
60726;SDS011;46577;49.004;12.120;2023-08-07T01:20:44;1.53;;;0.70;;
60726;SDS011;46577;49.004;12.120;2023-08-07T01:23:10;1.80;;;0.70;;
60726;SDS011;46577;49.004;12.120;2023-08-07T01:25:36;0.63;;;0.63;;
60726;SDS011;46577;49.004;12.120;2023-08-07T01:28:06;0.90;;;0.90;;
60726;SDS011;46577;49.004;12.120;2023-08-07T01:30:38;1.00;;;0.90;;
60726;SDS011;46577;49.004;12.120;2023-08-07T01:35:37;0.70;;;0.70;;
60726;SDS011;46577;49.004;12.120;2023-08-07T01:38:04;0.70;;;0.70;;
60726;SDS011;46577;49.004;12.120;2023-08-07T01:40:30;0.60;;;0.60;;
60726;SDS011;46577;49.004;12.120;2023-08-07T01:42:57;1.40;;;0.70;;
60726;SDS011;46577;49.004;12.120;2023-08-07T01:45:26;1.03;;;0.60;;
60726;SDS011;46577;49.004;12.120;2023-08-07T01:47:53;2.20;;;0.70;;
60726;SDS011;46577;49.004;12.120;2023-08-07T01:50:19;0.80;;;0.80;;
60726;SDS011;46577;49.004;12.120;2023-08-07T01:52:45;0.50;;;0.50;;
60726;SDS011;46577;49.004;12.120;2023-08-07T01:55:15;1.13;;;0.60;;
60726;SDS011;46577;49.004;12.120;2023-08-07T01:57:41;0.60;;;0.60;;
60726;SDS011;46577;49.004;12.120;2023-08-07T02:00:07;0.90;;;0.67;;
60726;SDS011;46577;49.004;12.120;2023-08-07T02:02:34;0.60;;;0.60;;
60726;SDS011;46577;49.004;12.120;2023-08-07T02:05:00;0.60;;;0.60;;
60726;SDS011;46577;49.004;12.120;2023-08-07T02:07:26;0.60;;;0.50;;
60726;SDS011;46577;49.004;12.120;2023-08-07T02:09:52;0.87;;;0.57;;
60726;SDS011;46577;49.004;12.120;2023-08-07T02:12:18;0.80;;;0.60;;
60726;SDS011;46577;49.004;12.120;2023-08-07T02:14:44;0.80;;;0.60;;
60726;SDS011;46577;49.004;12.120;2023-08-07T02:17:10;0.50;;;0.50;;
60726;SDS011;46577;49.004;12.120;2023-08-07T02:19:36;0.80;;;0.53;;
60726;SDS011;46577;49.004;12.120;2023-08-07T02:22:02;1.23;;;0.60;;
60726;SDS011;46577;49.004;12.120;2023-08-07T02:24:28;0.60;;;0.60;;
60726;SDS011;46577;49.004;12.120;2023-08-07T02:26:54;0.60;;;0.60;;
60726;SDS011;46577;49.004;12.120;2023-08-07T02:29:20;0.70;;;0.60;;
60726;SDS011;46577;49.004;12.120;2023-08-07T02:31:46;0.50;;;0.50;;
60726;SDS011;46577;49.004;12.120;2023-08-07T02:34:12;2.80;;;0.60;;
60726;SDS011;46577;49.004;12.120;2023-08-07T02:36:38;0.60;;;0.60;;
60726;SDS011;46577;49.004;12.120;2023-08-07T02:39:04;0.50;;;0.50;;
60726;SDS011;46577;49.004;12.120;2023-08-07T02:41:30;0.80;;;0.80;;
60726;SDS011;46577;49.004;12.120;2023-08-07T02:43:56;0.70;;;0.70;;
60726;SDS011;46577;49.004;12.120;2023-08-07T02:46:22;2.77;;;0.80;;
60726;SDS011;46577;49.004;12.120;2023-08-07T02:48:48;0.60;;;0.60;;
60726;SDS011;46577;49.004;12.120;2023-08-07T02:51:14;0.60;;;0.60;;
60726;SDS011;46577;49.004;12.120;2023-08-07T02:53:40;0.50;;;0.50;;
60726;SDS011;46577;49.004;12.120;2023-08-07T02:56:06;0.63;;;0.63;;
60726;SDS011;46577;49.004;12.120;2023-08-07T02:58:32;0.60;;;0.60;;
60726;SDS011;46577;49.004;12.120;2023-08-07T03:01:04;1.17;;;0.67;;
60726;SDS011;46577;49.004;12.120;2023-08-07T03:03:34;1.27;;;0.60;;
60726;SDS011;46577;49.004;12.120;2023-08-07T03:06:00;0.70;;;0.70;;
60726;SDS011;46577;49.004;12.120;2023-08-07T03:08:26;1.23;;;0.70;;
60726;SDS011;46577;49.004;12.120;2023-08-07T03:10:52;0.80;;;0.60;;
60726;SDS011;46577;49.004;12.120;2023-08-07T03:13:18;0.57;;;0.57;;
60726;SDS011;46577;49.004;12.120;2023-08-07T03:15:44;0.60;;;0.60;;
60726;SDS011;46577;49.004;12.120;2023-08-07T03:18:10;0.50;;;0.50;;
60726;SDS011;46577;49.004;12.120;2023-08-07T03:20:37;0.70;;;0.70;;
60726;SDS011;46577;49.004;12.120;2023-08-07T03:23:03;1.70;;;1.00;;
60726;SDS011;46577;49.004;12.120;2023-08-07T03:25:29;0.97;;;0.63;;
60726;SDS011;46577;49.004;12.120;2023-08-07T03:27:55;0.60;;;0.60;;
60726;SDS011;46577;49.004;12.120;2023-08-07T03:30:21;0.60;;;0.60;;
60726;SDS011;46577;49.004;12.120;2023-08-07T03:32:47;0.87;;;0.50;;
60726;SDS011;46577;49.004;12.120;2023-08-07T03:35:13;0.70;;;0.70;;
60726;SDS011;46577;49.004;12.120;2023-08-07T03:37:39;3.63;;;0.70;;
60726;SDS011;46577;49.004;12.120;2023-08-07T03:40:05;1.03;;;0.77;;
60726;SDS011;46577;49.004;12.120;2023-08-07T03:42:31;0.70;;;0.70;;
60726;SDS011;46577;49.004;12.120;2023-08-07T03:44:57;1.37;;;0.73;;
60726;SDS011;46577;49.004;12.120;2023-08-07T03:47:23;1.60;;;0.63;;
60726;SDS011;46577;49.004;12.120;2023-08-07T03:49:49;0.77;;;0.70;;
60726;SDS011;46577;49.004;12.120;2023-08-07T03:52:15;0.90;;;0.80;;
60726;SDS011;46577;49.004;12.120;2023-08-07T03:54:42;1.10;;;0.80;;
60726;SDS011;46577;49.004;12.120;2023-08-07T03:57:08;1.23;;;0.80;;
60726;SDS011;46577;49.004;12.120;2023-08-07T03:59:35;1.33;;;0.87;;
60726;SDS011;46577;49.004;12.120;2023-08-07T04:02:02;0.70;;;0.70;;
60726;SDS011;46577;49.004;12.120;2023-08-07T04:04:27;1.83;;;0.60;;
60726;SDS011;46577;49.004;12.120;2023-08-07T04:06:53;1.00;;;0.90;;
60726;SDS011;46577;49.004;12.120;2023-08-07T04:09:19;0.70;;;0.70;;
60726;SDS011;46577;49.004;12.120;2023-08-07T04:11:45;2.03;;;0.73;;
60726;SDS011;46577;49.004;12.120;2023-08-07T04:14:12;2.73;;;0.90;;
60726;SDS011;46577;49.004;12.120;2023-08-07T04:16:38;0.70;;;0.70;;
60726;SDS011;46577;49.004;12.120;2023-08-07T04:19:04;1.10;;;0.90;;
60726;SDS011;46577;49.004;12.120;2023-08-07T04:21:32;0.93;;;0.67;;
60726;SDS011;46577;49.004;12.120;2023-08-07T04:23:58;0.93;;;0.93;;
60726;SDS011;46577;49.004;12.120;2023-08-07T04:26:25;0.73;;;0.73;;
60726;SDS011;46577;49.004;12.120;2023-08-07T04:28:52;3.13;;;0.90;;
60726;SDS011;46577;49.004;12.120;2023-08-07T04:31:17;1.07;;;0.97;;
60726;SDS011;46577;49.004;12.120;2023-08-07T04:33:43;0.70;;;0.70;;
60726;SDS011;46577;49.004;12.120;2023-08-07T04:36:10;1.10;;;1.00;;
60726;SDS011;46577;49.004;12.120;2023-08-07T04:38:36;1.07;;;1.00;;
60726;SDS011;46577;49.004;12.120;2023-08-07T04:41:01;0.80;;;0.80;;
60726;SDS011;46577;49.004;12.120;2023-08-07T04:43:28;3.17;;;0.80;;
60726;SDS011;46577;49.004;12.120;2023-08-07T04:45:54;2.00;;;1.10;;
60726;SDS011;46577;49.004;12.120;2023-08-07T04:48:20;1.73;;;1.00;;
60726;SDS011;46577;49.004;12.120;2023-08-07T04:50:50;3.90;;;1.07;;
60726;SDS011;46577;49.004;12.120;2023-08-07T04:53:16;1.63;;;1.17;;
60726;SDS011;46577;49.004;12.120;2023-08-07T04:55:42;3.10;;;1.40;;
60726;SDS011;46577;49.004;12.120;2023-08-07T04:58:08;6.50;;;1.10;;
60726;SDS011;46577;49.004;12.120;2023-08-07T05:00:34;1.33;;;1.07;;
60726;SDS011;46577;49.004;12.120;2023-08-07T05:03:00;1.20;;;1.00;;
60726;SDS011;46577;49.004;12.120;2023-08-07T05:05:26;2.83;;;0.90;;
60726;SDS011;46577;49.004;12.120;2023-08-07T05:07:54;0.80;;;0.80;;
60726;SDS011;46577;49.004;12.120;2023-08-07T05:10:20;3.33;;;1.20;;
60726;SDS011;46577;49.004;12.120;2023-08-07T05:12:46;0.80;;;0.80;;
60726;SDS011;46577;49.004;12.120;2023-08-07T05:15:12;4.00;;;0.93;;
60726;SDS011;46577;49.004;12.120;2023-08-07T05:17:38;0.80;;;0.80;;
60726;SDS011;46577;49.004;12.120;2023-08-07T05:20:04;1.80;;;0.90;;
60726;SDS011;46577;49.004;12.120;2023-08-07T05:22:30;2.07;;;1.00;;
60726;SDS011;46577;49.004;12.120;2023-08-07T05:24:56;1.80;;;1.00;;
60726;SDS011;46577;49.004;12.120;2023-08-07T05:27:22;2.47;;;1.03;;
60726;SDS011;46577;49.004;12.120;2023-08-07T05:29:48;2.30;;;1.00;;
60726;SDS011;46577;49.004;12.120;2023-08-07T05:32:14;0.93;;;0.90;;
60726;SDS011;46577;49.004;12.120;2023-08-07T05:34:40;4.93;;;0.97;;
60726;SDS011;46577;49.004;12.120;2023-08-07T05:37:07;1.90;;;0.80;;
60726;SDS011;46577;49.004;12.120;2023-08-07T05:39:34;9.00;;;1.00;;
60726;SDS011;46577;49.004;12.120;2023-08-07T05:42:00;1.27;;;0.90;;
60726;SDS011;46577;49.004;12.120;2023-08-07T05:44:26;1.17;;;0.70;;
60726;SDS011;46577;49.004;12.120;2023-08-07T05:46:53;1.27;;;1.00;;
60726;SDS011;46577;49.004;12.120;2023-08-07T05:49:19;1.17;;;1.07;;
60726;SDS011;46577;49.004;12.120;2023-08-07T05:51:46;2.90;;;1.17;;
60726;SDS011;46577;49.004;12.120;2023-08-07T05:54:12;3.70;;;1.10;;
60726;SDS011;46577;49.004;12.120;2023-08-07T05:56:38;1.00;;;0.90;;
60726;SDS011;46577;49.004;12.120;2023-08-07T05:59:04;5.43;;;1.03;;
60726;SDS011;46577;49.004;12.120;2023-08-07T06:01:30;1.80;;;0.87;;
60726;SDS011;46577;49.004;12.120;2023-08-07T06:03:56;2.20;;;1.10;;
60726;SDS011;46577;49.004;12.120;2023-08-07T06:06:22;1.83;;;1.13;;
60726;SDS011;46577;49.004;12.120;2023-08-07T06:08:48;0.83;;;0.83;;
60726;SDS011;46577;49.004;12.120;2023-08-07T06:11:14;1.10;;;1.00;;
60726;SDS011;46577;49.004;12.120;2023-08-07T06:13:40;1.33;;;0.87;;
60726;SDS011;46577;49.004;12.120;2023-08-07T06:16:06;3.80;;;0.97;;
60726;SDS011;46577;49.004;12.120;2023-08-07T06:18:32;1.50;;;1.00;;
60726;SDS011;46577;49.004;12.120;2023-08-07T06:20:59;4.10;;;1.00;;
60726;SDS011;46577;49.004;12.120;2023-08-07T06:23:25;1.47;;;0.97;;
60726;SDS011;46577;49.004;12.120;2023-08-07T06:25:51;1.47;;;1.00;;
60726;SDS011;46577;49.004;12.120;2023-08-07T06:28:17;0.87;;;0.87;;
60726;SDS011;46577;49.004;12.120;2023-08-07T06:30:43;2.50;;;0.90;;
60726;SDS011;46577;49.004;12.120;2023-08-07T06:33:09;1.43;;;1.10;;
60726;SDS011;46577;49.004;12.120;2023-08-07T06:35:39;0.83;;;0.73;;
60726;SDS011;46577;49.004;12.120;2023-08-07T06:38:05;0.73;;;0.73;;
60726;SDS011;46577;49.004;12.120;2023-08-07T06:40:31;2.07;;;0.87;;
60726;SDS011;46577;49.004;12.120;2023-08-07T06:42:57;1.50;;;0.90;;
60726;SDS011;46577;49.004;12.120;2023-08-07T06:45:23;3.67;;;1.40;;
60726;SDS011;46577;49.004;12.120;2023-08-07T06:47:50;3.03;;;0.70;;
60726;SDS011;46577;49.004;12.120;2023-08-07T06:50:16;0.73;;;0.73;;
60726;SDS011;46577;49.004;12.120;2023-08-07T06:52:42;3.03;;;1.13;;
60726;SDS011;46577;49.004;12.120;2023-08-07T06:55:08;2.30;;;1.00;;
60726;SDS011;46577;49.004;12.120;2023-08-07T06:57:34;1.47;;;0.87;;
60726;SDS011;46577;49.004;12.120;2023-08-07T07:00:00;3.00;;;1.20;;
60726;SDS011;46577;49.004;12.120;2023-08-07T07:02:26;5.13;;;0.97;;
60726;SDS011;46577;49.004;12.120;2023-08-07T07:04:52;1.73;;;0.93;;
60726;SDS011;46577;49.004;12.120;2023-08-07T07:07:18;1.57;;;0.73;;
60726;SDS011;46577;49.004;12.120;2023-08-07T07:09:44;1.90;;;1.10;;
60726;SDS011;46577;49.004;12.120;2023-08-07T07:12:10;1.40;;;0.83;;
60726;SDS011;46577;49.004;12.120;2023-08-07T07:14:36;1.10;;;1.00;;
60726;SDS011;46577;49.004;12.120;2023-08-07T07:17:02;1.40;;;1.30;;
60726;SDS011;46577;49.004;12.120;2023-08-07T07:19:28;1.37;;;1.00;;
60726;SDS011;46577;49.004;12.120;2023-08-07T07:21:54;4.47;;;1.30;;
60726;SDS011;46577;49.004;12.120;2023-08-07T07:24:20;1.40;;;1.00;;
60726;SDS011;46577;49.004;12.120;2023-08-07T07:26:46;1.50;;;1.20;;
60726;SDS011;46577;49.004;12.120;2023-08-07T07:29:12;1.80;;;1.10;;
60726;SDS011;46577;49.004;12.120;2023-08-07T07:31:38;2.63;;;1.00;;
60726;SDS011;46577;49.004;12.120;2023-08-07T07:34:04;1.30;;;1.20;;
60726;SDS011;46577;49.004;12.120;2023-08-07T07:36:30;2.43;;;0.80;;
60726;SDS011;46577;49.004;12.120;2023-08-07T07:38:56;1.30;;;0.97;;
60726;SDS011;46577;49.004;12.120;2023-08-07T07:41:22;2.13;;;1.30;;
60726;SDS011;46577;49.004;12.120;2023-08-07T07:43:49;2.30;;;1.73;;
60726;SDS011;46577;49.004;12.120;2023-08-07T07:46:15;1.83;;;1.30;;
60726;SDS011;46577;49.004;12.120;2023-08-07T07:48:41;2.80;;;0.90;;
60726;SDS011;46577;49.004;12.120;2023-08-07T07:51:07;0.80;;;0.80;;
60726;SDS011;46577;49.004;12.120;2023-08-07T07:53:33;2.70;;;1.30;;
60726;SDS011;46577;49.004;12.120;2023-08-07T07:56:00;1.40;;;1.23;;
60726;SDS011;46577;49.004;12.120;2023-08-07T07:58:26;2.50;;;1.37;;
60726;SDS011;46577;49.004;12.120;2023-08-07T08:00:52;1.00;;;0.90;;
60726;SDS011;46577;49.004;12.120;2023-08-07T08:03:19;1.37;;;1.00;;
60726;SDS011;46577;49.004;12.120;2023-08-07T08:05:46;1.43;;;1.20;;
60726;SDS011;46577;49.004;12.120;2023-08-07T08:08:12;3.40;;;0.90;;
60726;SDS011;46577;49.004;12.120;2023-08-07T08:10:38;1.33;;;1.23;;
60726;SDS011;46577;49.004;12.120;2023-08-07T08:13:04;2.60;;;0.80;;
60726;SDS011;46577;49.004;12.120;2023-08-07T08:15:30;1.80;;;0.70;;
60726;SDS011;46577;49.004;12.120;2023-08-07T08:17:56;5.10;;;1.20;;
60726;SDS011;46577;49.004;12.120;2023-08-07T08:20:22;1.00;;;0.90;;
60726;SDS011;46577;49.004;12.120;2023-08-07T08:22:48;1.43;;;0.90;;
60726;SDS011;46577;49.004;12.120;2023-08-07T08:25:14;1.13;;;1.00;;
60726;SDS011;46577;49.004;12.120;2023-08-07T08:27:40;1.83;;;0.90;;
60726;SDS011;46577;49.004;12.120;2023-08-07T08:30:06;2.83;;;0.90;;
60726;SDS011;46577;49.004;12.120;2023-08-07T08:32:33;1.37;;;1.27;;
60726;SDS011;46577;49.004;12.120;2023-08-07T08:34:59;0.73;;;0.73;;
60726;SDS011;46577;49.004;12.120;2023-08-07T08:37:26;1.40;;;1.20;;
60726;SDS011;46577;49.004;12.120;2023-08-07T08:39:52;1.00;;;0.80;;
60726;SDS011;46577;49.004;12.120;2023-08-07T08:42:18;1.27;;;1.17;;
60726;SDS011;46577;49.004;12.120;2023-08-07T08:44:57;2.93;;;0.97;;
60726;SDS011;46577;49.004;12.120;2023-08-07T08:47:25;1.00;;;0.90;;
60726;SDS011;46577;49.004;12.120;2023-08-07T08:50:01;0.73;;;0.73;;
60726;SDS011;46577;49.004;12.120;2023-08-07T08:52:28;1.13;;;0.90;;
60726;SDS011;46577;49.004;12.120;2023-08-07T08:54:57;1.33;;;0.87;;
60726;SDS011;46577;49.004;12.120;2023-08-07T08:57:26;2.83;;;1.13;;
60726;SDS011;46577;49.004;12.120;2023-08-07T08:59:52;0.93;;;0.80;;
60726;SDS011;46577;49.004;12.120;2023-08-07T09:02:18;0.90;;;0.90;;
60726;SDS011;46577;49.004;12.120;2023-08-07T09:04:45;2.07;;;1.13;;
60726;SDS011;46577;49.004;12.120;2023-08-07T09:07:11;1.17;;;1.07;;
60726;SDS011;46577;49.004;12.120;2023-08-07T09:09:39;1.63;;;1.43;;
60726;SDS011;46577;49.004;12.120;2023-08-07T09:12:06;2.30;;;1.20;;
60726;SDS011;46577;49.004;12.120;2023-08-07T09:14:34;1.60;;;1.00;;
60726;SDS011;46577;49.004;12.120;2023-08-07T09:17:04;0.90;;;0.90;;
60726;SDS011;46577;49.004;12.120;2023-08-07T09:19:30;1.23;;;1.13;;
60726;SDS011;46577;49.004;12.120;2023-08-07T09:21:56;1.80;;;1.10;;
60726;SDS011;46577;49.004;12.120;2023-08-07T09:24:22;2.67;;;1.40;;
60726;SDS011;46577;49.004;12.120;2023-08-07T09:26:48;2.00;;;1.07;;
60726;SDS011;46577;49.004;12.120;2023-08-07T09:29:16;1.70;;;0.90;;
60726;SDS011;46577;49.004;12.120;2023-08-07T09:31:43;1.20;;;1.10;;
60726;SDS011;46577;49.004;12.120;2023-08-07T09:34:12;2.93;;;1.37;;
60726;SDS011;46577;49.004;12.120;2023-08-07T09:36:41;1.43;;;1.10;;
60726;SDS011;46577;49.004;12.120;2023-08-07T09:39:08;1.93;;;1.30;;
60726;SDS011;46577;49.004;12.120;2023-08-07T09:41:35;2.20;;;1.33;;
60726;SDS011;46577;49.004;12.120;2023-08-07T09:44:10;4.33;;;1.20;;
60726;SDS011;46577;49.004;12.120;2023-08-07T09:46:42;3.07;;;1.20;;
60726;SDS011;46577;49.004;12.120;2023-08-07T09:49:09;3.17;;;1.53;;
60726;SDS011;46577;49.004;12.120;2023-08-07T09:51:42;1.93;;;1.40;;
60726;SDS011;46577;49.004;12.120;2023-08-07T09:54:08;5.27;;;1.40;;
60726;SDS011;46577;49.004;12.120;2023-08-07T09:56:40;1.97;;;1.30;;
60726;SDS011;46577;49.004;12.120;2023-08-07T09:59:06;6.03;;;1.60;;
60726;SDS011;46577;49.004;12.120;2023-08-07T10:01:33;4.90;;;1.67;;
60726;SDS011;46577;49.004;12.120;2023-08-07T10:04:02;2.73;;;1.70;;
60726;SDS011;46577;49.004;12.120;2023-08-07T10:06:28;1.43;;;1.30;;
60726;SDS011;46577;49.004;12.120;2023-08-07T10:08:55;6.13;;;2.00;;
60726;SDS011;46577;49.004;12.120;2023-08-07T10:11:22;6.10;;;2.20;;
60726;SDS011;46577;49.004;12.120;2023-08-07T10:13:49;3.43;;;1.50;;
60726;SDS011;46577;49.004;12.120;2023-08-07T10:16:15;3.90;;;1.43;;
60726;SDS011;46577;49.004;12.120;2023-08-07T10:18:41;2.50;;;1.63;;
60726;SDS011;46577;49.004;12.120;2023-08-07T10:21:07;1.97;;;1.50;;
60726;SDS011;46577;49.004;12.120;2023-08-07T10:23:34;4.03;;;1.67;;
60726;SDS011;46577;49.004;12.120;2023-08-07T10:26:01;3.97;;;1.73;;
60726;SDS011;46577;49.004;12.120;2023-08-07T10:28:28;1.43;;;1.33;;
60726;SDS011;46577;49.004;12.120;2023-08-07T10:30:54;6.53;;;1.40;;
60726;SDS011;46577;49.004;12.120;2023-08-07T10:33:21;2.50;;;1.33;;
60726;SDS011;46577;49.004;12.120;2023-08-07T10:35:49;5.00;;;1.77;;
60726;SDS011;46577;49.004;12.120;2023-08-07T10:38:16;4.67;;;1.80;;
60726;SDS011;46577;49.004;12.120;2023-08-07T10:43:28;4.30;;;1.47;;
60726;SDS011;46577;49.004;12.120;2023-08-07T10:46:16;2.93;;;1.33;;
60726;SDS011;46577;49.004;12.120;2023-08-07T10:48:44;2.17;;;1.27;;
60726;SDS011;46577;49.004;12.120;2023-08-07T10:51:15;2.23;;;1.10;;
60726;SDS011;46577;49.004;12.120;2023-08-07T10:53:50;2.50;;;1.83;;
60726;SDS011;46577;49.004;12.120;2023-08-07T10:56:18;1.70;;;1.30;;
60726;SDS011;46577;49.004;12.120;2023-08-07T10:58:54;2.60;;;1.17;;
60726;SDS011;46577;49.004;12.120;2023-08-07T11:06:16;3.03;;;1.63;;
60726;SDS011;46577;49.004;12.120;2023-08-07T11:08:42;2.47;;;1.20;;
60726;SDS011;46577;49.004;12.120;2023-08-07T11:11:08;1.10;;;1.00;;
60726;SDS011;46577;49.004;12.120;2023-08-07T11:13:34;1.03;;;0.87;;
60726;SDS011;46577;49.004;12.120;2023-08-07T11:16:04;1.60;;;1.10;;
60726;SDS011;46577;49.004;12.120;2023-08-07T11:18:30;3.07;;;1.10;;
60726;SDS011;46577;49.004;12.120;2023-08-07T11:20:57;3.07;;;1.23;;
60726;SDS011;46577;49.004;12.120;2023-08-07T11:23:24;2.03;;;1.40;;
60726;SDS011;46577;49.004;12.120;2023-08-07T11:25:50;1.53;;;1.27;;
60726;SDS011;46577;49.004;12.120;2023-08-07T11:28:20;3.97;;;1.00;;
60726;SDS011;46577;49.004;12.120;2023-08-07T11:30:48;1.67;;;1.27;;
60726;SDS011;46577;49.004;12.120;2023-08-07T11:33:14;1.93;;;1.20;;
60726;SDS011;46577;49.004;12.120;2023-08-07T11:35:41;5.70;;;1.00;;
60726;SDS011;46577;49.004;12.120;2023-08-07T11:38:07;1.27;;;0.83;;
60726;SDS011;46577;49.004;12.120;2023-08-07T11:40:34;2.80;;;1.23;;
60726;SDS011;46577;49.004;12.120;2023-08-07T11:43:01;1.73;;;0.80;;
60726;SDS011;46577;49.004;12.120;2023-08-07T11:45:27;1.47;;;1.00;;
60726;SDS011;46577;49.004;12.120;2023-08-07T11:47:53;0.97;;;0.93;;
60726;SDS011;46577;49.004;12.120;2023-08-07T11:50:24;3.80;;;1.30;;
60726;SDS011;46577;49.004;12.120;2023-08-07T11:52:50;2.20;;;1.17;;
60726;SDS011;46577;49.004;12.120;2023-08-07T11:55:17;2.03;;;1.37;;
60726;SDS011;46577;49.004;12.120;2023-08-07T11:57:45;3.73;;;1.83;;
60726;SDS011;46577;49.004;12.120;2023-08-07T12:00:11;4.87;;;1.13;;
60726;SDS011;46577;49.004;12.120;2023-08-07T12:02:41;4.90;;;0.93;;
60726;SDS011;46577;49.004;12.120;2023-08-07T12:05:08;2.50;;;1.00;;
60726;SDS011;46577;49.004;12.120;2023-08-07T12:07:36;2.13;;;1.60;;
60726;SDS011;46577;49.004;12.120;2023-08-07T12:10:03;4.63;;;1.40;;
60726;SDS011;46577;49.004;12.120;2023-08-07T12:12:32;2.10;;;1.40;;
60726;SDS011;46577;49.004;12.120;2023-08-07T12:14:58;1.77;;;1.17;;
60726;SDS011;46577;49.004;12.120;2023-08-07T12:17:25;1.63;;;1.20;;
60726;SDS011;46577;49.004;12.120;2023-08-07T12:19:51;1.17;;;1.07;;
60726;SDS011;46577;49.004;12.120;2023-08-07T12:22:19;3.53;;;1.23;;
60726;SDS011;46577;49.004;12.120;2023-08-07T12:24:46;2.00;;;0.97;;
60726;SDS011;46577;49.004;12.120;2023-08-07T12:27:12;2.03;;;1.00;;
60726;SDS011;46577;49.004;12.120;2023-08-07T12:29:38;2.20;;;1.20;;
60726;SDS011;46577;49.004;12.120;2023-08-07T12:32:04;0.97;;;0.90;;
60726;SDS011;46577;49.004;12.120;2023-08-07T12:34:30;1.13;;;1.03;;
60726;SDS011;46577;49.004;12.120;2023-08-07T12:36:57;1.43;;;1.00;;
60726;SDS011;46577;49.004;12.120;2023-08-07T12:39:23;2.20;;;0.90;;
60726;SDS011;46577;49.004;12.120;2023-08-07T12:41:49;1.63;;;0.90;;
60726;SDS011;46577;49.004;12.120;2023-08-07T12:44:16;1.10;;;0.90;;
60726;SDS011;46577;49.004;12.120;2023-08-07T12:46:42;1.93;;;1.43;;
60726;SDS011;46577;49.004;12.120;2023-08-07T12:49:11;0.93;;;0.87;;
60726;SDS011;46577;49.004;12.120;2023-08-07T12:51:37;1.70;;;1.20;;
60726;SDS011;46577;49.004;12.120;2023-08-07T12:54:03;1.13;;;1.03;;
60726;SDS011;46577;49.004;12.120;2023-08-07T12:58:55;1.40;;;1.27;;
60726;SDS011;46577;49.004;12.120;2023-08-07T13:01:21;0.80;;;0.80;;
60726;SDS011;46577;49.004;12.120;2023-08-07T13:03:47;1.97;;;1.00;;
60726;SDS011;46577;49.004;12.120;2023-08-07T13:06:13;1.63;;;1.03;;
60726;SDS011;46577;49.004;12.120;2023-08-07T13:08:39;1.30;;;1.00;;
60726;SDS011;46577;49.004;12.120;2023-08-07T13:11:05;1.40;;;1.30;;
60726;SDS011;46577;49.004;12.120;2023-08-07T13:13:31;1.27;;;0.90;;
60726;SDS011;46577;49.004;12.120;2023-08-07T13:15:57;1.60;;;1.17;;
60726;SDS011;46577;49.004;12.120;2023-08-07T13:18:24;3.47;;;1.20;;
60726;SDS011;46577;49.004;12.120;2023-08-07T13:20:50;1.47;;;1.33;;
60726;SDS011;46577;49.004;12.120;2023-08-07T13:23:16;1.50;;;1.40;;
60726;SDS011;46577;49.004;12.120;2023-08-07T13:25:42;2.50;;;0.90;;
60726;SDS011;46577;49.004;12.120;2023-08-07T13:28:08;3.80;;;1.53;;
60726;SDS011;46577;49.004;12.120;2023-08-07T13:30:34;1.90;;;1.30;;
60726;SDS011;46577;49.004;12.120;2023-08-07T13:33:00;1.33;;;1.23;;
60726;SDS011;46577;49.004;12.120;2023-08-07T13:35:25;2.50;;;1.37;;
60726;SDS011;46577;49.004;12.120;2023-08-07T13:37:52;1.40;;;1.30;;
60726;SDS011;46577;49.004;12.120;2023-08-07T13:40:18;2.87;;;1.50;;
60726;SDS011;46577;49.004;12.120;2023-08-07T13:42:45;1.10;;;1.00;;
60726;SDS011;46577;49.004;12.120;2023-08-07T13:45:11;1.70;;;1.10;;
60726;SDS011;46577;49.004;12.120;2023-08-07T13:47:38;2.93;;;1.50;;
60726;SDS011;46577;49.004;12.120;2023-08-07T13:50:05;4.10;;;1.57;;
60726;SDS011;46577;49.004;12.120;2023-08-07T13:52:32;1.93;;;1.40;;
60726;SDS011;46577;49.004;12.120;2023-08-07T13:54:58;1.23;;;1.13;;
60726;SDS011;46577;49.004;12.120;2023-08-07T13:57:24;1.70;;;1.17;;
60726;SDS011;46577;49.004;12.120;2023-08-07T13:59:50;3.10;;;1.30;;
60726;SDS011;46577;49.004;12.120;2023-08-07T14:02:19;2.10;;;1.20;;
60726;SDS011;46577;49.004;12.120;2023-08-07T14:04:45;2.77;;;1.50;;
60726;SDS011;46577;49.004;12.120;2023-08-07T14:07:11;3.90;;;1.23;;
60726;SDS011;46577;49.004;12.120;2023-08-07T14:09:38;3.40;;;1.47;;
60726;SDS011;46577;49.004;12.120;2023-08-07T14:12:04;2.73;;;1.30;;
60726;SDS011;46577;49.004;12.120;2023-08-07T14:14:30;2.80;;;1.43;;
60726;SDS011;46577;49.004;12.120;2023-08-07T14:16:56;3.47;;;1.30;;
60726;SDS011;46577;49.004;12.120;2023-08-07T14:19:25;2.70;;;1.10;;
60726;SDS011;46577;49.004;12.120;2023-08-07T14:21:51;1.40;;;1.00;;
60726;SDS011;46577;49.004;12.120;2023-08-07T14:24:17;1.70;;;1.60;;
60726;SDS011;46577;49.004;12.120;2023-08-07T14:26:43;2.00;;;1.20;;
60726;SDS011;46577;49.004;12.120;2023-08-07T14:29:09;5.67;;;1.17;;
60726;SDS011;46577;49.004;12.120;2023-08-07T14:31:35;9.53;;;1.57;;
60726;SDS011;46577;49.004;12.120;2023-08-07T14:34:01;2.43;;;1.13;;
60726;SDS011;46577;49.004;12.120;2023-08-07T14:36:27;1.40;;;1.10;;
60726;SDS011;46577;49.004;12.120;2023-08-07T14:38:53;1.70;;;1.50;;
60726;SDS011;46577;49.004;12.120;2023-08-07T14:41:19;1.13;;;1.03;;
60726;SDS011;46577;49.004;12.120;2023-08-07T14:43:45;1.20;;;0.97;;